M I D A S
Marine Information and Data Acquisition System
Tripno 1203 of the Zeeleeuw from 2007-01-22 08:14:11 to 2007-01-22 15:55:20
Back to CruiseResearch ActivitiesStationsMapUnderway DataData graphs

EquipmentUnitsComment
TimeDGPSUTC
LatitudeDGPSDM.mWGS84
LongitudeDGPSDM.mWGS84
TemperatureSBE03/SBE38deg celciusITS90
ConductivitySBE21S/mITS90
SalinitySBE21 Practical Salinity Units
ChlorophylAChelsea fluorimeterg/lCalibrated in Aceton
Missing or incorrect values are displayed as -999
Sea surface data collected by the RV Zeeleeuw from 2007-01-22 07:31:52 to 2007-01-22 16:03:59
Time Latitude Longitude Temperature Conductivity Salinity ChlorophylA
2007-01-22 07:32:57 51°13.619 2°56.043 15.1608 0.067148 0.361111 -2.871232
2007-01-22 07:33:57 51°13.62 2°56.042 15.164 0.067251 0.361717 -2.871232
2007-01-22 07:34:57 51°13.62 2°56.042 15.1676 0.067148 0.361174 -2.871232
2007-01-22 07:35:57 51°13.62 2°56.042 15.1744 0.067148 0.361202 -2.871232
2007-01-22 07:36:57 51°13.62 2°56.043 15.1804 0.067148 0.36123 -2.871232
2007-01-22 07:37:57 51°13.62 2°56.043 15.1816 0.067045 0.360687 -2.871232
2007-01-22 07:38:57 51°13.619 2°56.043 15.1695 0.067148 0.361293 -2.871232
2007-01-22 07:39:57 51°13.62 2°56.043 15.1629 0.067148 0.361314 -2.871232
2007-01-22 07:40:57 51°13.62 2°56.044 15.1778 0.067148 0.361341 -2.871232
2007-01-22 07:41:57 51°13.62 2°56.044 15.174 0.067148 0.361376 -2.871232
2007-01-22 07:42:57 51°13.62 2°56.044 15.1737 0.067148 0.361404 -2.871232
2007-01-22 07:43:57 51°13.62 2°56.044 15.1716 0.067148 0.361432 -2.871232
2007-01-22 07:44:57 51°13.621 2°56.044 15.1584 0.067148 0.36146 -2.871232
2007-01-22 07:45:57 51°13.62 2°56.044 15.164 0.067148 0.361488 -2.871232
2007-01-22 07:46:57 51°13.62 2°56.043 15.1548 0.067148 0.361516 -2.871232
2007-01-22 07:47:57 51°13.62 2°56.043 15.1626 0.067045 0.360972 -2.871232
2007-01-22 07:48:56 51°13.62 2°56.043 15.1664 0.067148 0.361572 -2.871232
2007-01-22 07:49:57 51°13.62 2°56.043 15.1552 0.067045 0.361028 -2.871232
2007-01-22 07:50:57 51°13.62 2°56.043 15.1606 0.067148 0.361628 -2.871232
2007-01-22 07:51:57 51°13.62 2°56.043 15.1675 0.067148 0.361656 -2.871232
2007-01-22 07:52:57 51°13.619 2°56.043 15.1623 0.067045 0.361119 -2.871232
2007-01-22 07:53:57 51°13.62 2°56.043 15.1522 0.067148 0.361718 -2.871232
2007-01-22 07:54:57 51°13.62 2°56.043 15.1499 0.067045 0.361168 -2.871232
2007-01-22 07:55:56 51°13.62 2°56.043 15.1546 0.067045 0.361203 -2.871232
2007-01-22 07:56:57 51°13.62 2°56.043 15.1385 0.067148 0.361802 -2.871232
2007-01-22 07:57:56 51°13.62 2°56.042 15.1395 0.067045 0.361258 -2.871232
2007-01-22 07:58:57 51°13.62 2°56.042 15.1382 0.067045 0.361279 -2.871232
2007-01-22 07:59:57 51°13.62 2°56.042 15.136 0.067045 0.361307 -2.871232
2007-01-22 08:00:57 51°13.62 2°56.042 15.1371 0.067045 0.361335 -2.871232
2007-01-22 08:01:57 51°13.619 2°56.042 15.1359 0.067045 0.361363 -2.871232
2007-01-22 08:02:57 51°13.619 2°56.043 15.133 0.067045 0.361391 -2.871232
2007-01-22 08:03:57 51°13.619 2°56.043 15.1336 0.066942 0.36084 -2.871232
2007-01-22 08:04:57 51°13.618 2°56.042 15.1363 0.067045 0.36144 -2.871232
2007-01-22 08:05:56 51°13.618 2°56.042 15.1393 0.066942 0.360896 -2.871232
2007-01-22 08:06:57 51°13.619 2°56.042 15.1417 0.067045 0.361496 -2.871232
2007-01-22 08:07:57 51°13.619 2°56.042 15.1441 0.067045 0.361524 -2.871232
2007-01-22 08:08:57 51°13.617 2°56.042 15.138 0.067045 0.361552 -2.871232
2007-01-22 08:09:57 51°13.619 2°56.042 15.1401 0.067045 0.361573 -2.871232
2007-01-22 08:10:57 51°13.619 2°56.043 15.1483 0.067045 0.361608 -2.871232
2007-01-22 08:11:55 51°13.618 2°56.042 15.1583 0.066942 0.361056 -2.871232
2007-01-22 08:12:57 51°13.619 2°56.043 15.1584 0.066942 0.361084 -2.871232
2007-01-22 08:13:57 51°13.619 2°56.043 15.1467 0.067045 0.361685 -2.871232
2007-01-22 08:14:57 51°13.619 2°56.043 15.1635 0.066942 0.36114 -2.871232
2007-01-22 08:15:57 51°13.619 2°56.044 15.1692 0.066942 0.361168 -2.871232
2007-01-22 08:16:56 51°13.619 2°56.044 15.1678 0.066942 0.36121 -2.871232
2007-01-22 08:17:57 51°13.627 2°56.016 15.1413 0.066942 0.361252 -2.871232
2007-01-22 08:18:57 51°13.653 2°55.927 15.1876 0.066942 0.361301 -2.871232
2007-01-22 08:19:56 51°13.675 2°55.834 15.2042 0.067045 0.361923 -2.871232
2007-01-22 08:20:54 51°13.683 2°55.766 15.2018 0.067045 0.361979 -2.871232
2007-01-22 08:21:53 51°13.687 2°55.754 15.2263 0.066942 0.361462 -2.871232
2007-01-22 08:22:53 51°13.715 2°55.757 15.2943 0.066942 0.361525 -2.871232
2007-01-22 08:23:53 51°13.772 2°55.695 15.1266 0.066942 0.36156 -2.871232
2007-01-22 08:24:53 51°13.873 2°55.603 15.0671 0.066839 0.361057 -2.871232
2007-01-22 08:25:53 51°13.994 2°55.517 15.0932 0.066839 0.361134 -2.871232
2007-01-22 08:26:53 51°14.116 2°55.428 15.1646 0.066942 0.361764 -2.871232
2007-01-22 08:27:53 51°14.232 2°55.317 15.283 0.066839 0.361253 -2.871232
2007-01-22 08:28:53 51°14.339 2°55.121 15.0103 0.066839 0.36133 -2.871232
2007-01-22 08:29:53 51°14.439 2°54.857 15.0955 0.066839 0.361316 -2.871232
2007-01-22 08:30:53 51°14.415 2°54.523 14.9585 0.066839 0.361422 -2.871232
2007-01-22 08:31:53 51°14.334 2°54.181 14.8838 0.066839 0.361534 -2.871232
2007-01-22 08:32:53 51°14.25 2°53.833 14.9609 0.066839 0.361541 -2.871232
2007-01-22 08:33:53 51°14.135 2°53.504 14.8174 0.066839 0.361639 -2.871232
2007-01-22 08:34:53 51°14.017 2°53.172 9.3782 3.502782 30.328871 -2.871232
2007-01-22 08:35:53 51°13.903 2°52.831 9.3119 3.593832 31.847623 -2.871232
2007-01-22 08:36:53 51°13.78 2°52.495 9.293 3.616208 32.153802 -2.871232
2007-01-22 08:37:53 51°13.657 2°52.157 9.2753 3.621492 32.233064 -2.871232
2007-01-22 08:38:53 51°13.534 2°51.819 9.2509 3.627708 32.325105 -2.871232
2007-01-22 08:39:53 51°13.412 2°51.48 9.2015 3.625326 32.340571 -2.871232
2007-01-22 08:40:54 51°13.289 2°51.135 9.1729 3.622529 32.360484 -2.871232
2007-01-22 08:41:53 51°13.169 2°50.8 9.1562 3.623255 32.40182 -2.871232
2007-01-22 08:42:54 51°13.047 2°50.451 9.1413 3.624809 32.42924 -2.871232
2007-01-22 08:43:54 51°12.925 2°50.11 9.1138 3.625535 32.46214 -2.871232
2007-01-22 08:44:53 51°12.811 2°49.769 9.1006 3.622842 32.47562 -2.871232
2007-01-22 08:45:53 51°12.702 2°49.417 9.1291 3.626364 32.49355 -2.871232
2007-01-22 08:46:53 51°12.6 2°49.058 9.1549 3.632268 32.526609 -2.871232
2007-01-22 08:47:54 51°12.501 2°48.69 9.1718 3.621183 32.400014 -2.871232
2007-01-22 08:48:54 51°12.404 2°48.325 9.2373 3.635375 32.495802 -2.871232
2007-01-22 08:49:54 51°12.308 2°47.96 9.1754 3.64532 32.574938 -2.871232
2007-01-22 08:50:54 51°12.21 2°47.595 9.2484 3.639519 32.563588 -2.871232
2007-01-22 08:51:54 51°12.114 2°47.229 9.1865 3.647289 32.598792 -2.871232
2007-01-22 08:52:53 51°12.021 2°46.866 9.0962 3.644077 32.582314 -2.871232
2007-01-22 08:53:53 51°11.923 2°46.499 9.2007 3.627814 32.526044 -2.871232
2007-01-22 08:54:54 51°11.825 2°46.124 9.2735 3.638483 32.506143 -2.871232
2007-01-22 08:55:53 51°11.731 2°45.761 9.2831 3.643766 32.525244 -2.871232
2007-01-22 08:56:54 51°11.631 2°45.386 9.2234 3.64273 32.512396 -2.871232
2007-01-22 08:57:53 51°11.534 2°45.026 9.25 3.636515 32.537988 -2.871232
2007-01-22 08:58:54 51°11.433 2°44.656 9.3125 3.636307 32.452068 -2.871232
2007-01-22 08:59:54 51°11.336 2°44.294 9.3193 3.651224 32.564187 -2.871232
2007-01-22 09:00:54 51°11.24 2°43.933 9.3362 3.647287 32.520871 -2.871232
2007-01-22 09:01:54 51°11.145 2°43.574 9.3633 3.643558 32.464281 -2.871232
2007-01-22 09:02:54 51°11.051 2°43.214 9.3689 3.6563 32.571764 -2.871232
2007-01-22 09:03:54 51°10.957 2°42.856 9.3953 3.658993 32.585631 -2.871232
2007-01-22 09:04:54 51°10.879 2°42.488 9.4045 3.664898 32.625309 -2.871232
2007-01-22 09:05:54 51°10.811 2°42.114 9.4018 3.66697 32.64155 -2.871232
2007-01-22 09:06:53 51°10.798 2°41.745 9.3944 3.665624 32.629925 -2.871232
2007-01-22 09:07:53 51°10.939 2°41.708 9.3823 3.646768 32.428013 -2.871232
2007-01-22 09:08:53 51°11.03 2°41.892 9.398 3.66666 32.643605 -2.871232
2007-01-22 09:09:53 51°11.091 2°42.016 9.4087 3.671736 32.687029 -2.871232
2007-01-22 09:10:53 51°11.12 2°42.05 9.4066 3.673083 32.698654 -2.871232
2007-01-22 09:11:53 51°11.116 2°42.066 9.411 3.674533 32.707019 -2.871232
2007-01-22 09:12:54 51°11.108 2°42.062 9.4045 3.67443 32.708564 -2.871232
2007-01-22 09:13:53 51°11.1 2°42.054 9.4097 3.67443 32.711992 -2.871232
2007-01-22 09:14:53 51°11.093 2°42.044 9.4093 3.67443 32.710278 -2.871232
2007-01-22 09:15:53 51°11.085 2°42.03 9.4089 3.67443 32.709421 -2.871232
2007-01-22 09:16:53 51°11.078 2°42.017 9.4051 3.674326 32.709252 -2.871232
2007-01-22 09:17:53 51°11.071 2°42.002 9.4049 3.674119 32.708057 -2.871232
2007-01-22 09:18:53 51°11.066 2°41.987 9.4058 3.674015 32.708745 -2.871232
2007-01-22 09:19:53 51°11.061 2°41.971 9.4055 3.674223 32.70994 -2.871232
2007-01-22 09:20:53 51°11.02 2°41.951 9.3992 3.674326 32.708395 -2.871232
2007-01-22 09:21:53 51°10.942 2°41.76 9.3959 3.67298 32.705341 -2.871232
2007-01-22 09:22:53 51°10.835 2°41.469 9.4089 3.672254 32.699014 -2.871232
2007-01-22 09:23:53 51°10.786 2°41.119 9.3963 3.672358 32.694042 -2.871232
2007-01-22 09:24:53 51°10.744 2°40.761 9.3842 3.671011 32.692698 -2.871232
2007-01-22 09:25:53 51°10.694 2°40.405 9.3707 3.67039 32.700255 -2.871232
2007-01-22 09:26:53 51°10.644 2°40.047 9.353 3.670183 32.708496 -2.871232
2007-01-22 09:27:53 51°10.592 2°39.689 9.3986 3.67298 32.727643 -2.871232
2007-01-22 09:28:53 51°10.548 2°39.329 9.4005 3.67816 32.754941 -2.871232
2007-01-22 09:29:53 51°10.513 2°38.964 9.3519 3.678781 32.769688 -2.871232
2007-01-22 09:30:53 51°10.479 2°38.598 9.2701 3.667075 32.71545 -2.871232
2007-01-22 09:31:53 51°10.445 2°38.231 9.2001 3.647703 32.599477 -2.871232
2007-01-22 09:32:53 51°10.414 2°37.865 9.0664 3.621909 32.423479 -2.871232
2007-01-22 09:33:53 51°10.384 2°37.499 8.9918 3.568046 32.003704 -2.871232
2007-01-22 09:34:53 51°10.438 2°37.153 8.9972 3.529103 31.657835 -2.871232
2007-01-22 09:35:53 51°10.52 2°36.835 9.0611 3.529309 31.641437 -2.871232
2007-01-22 09:36:53 51°10.65 2°36.592 9.3362 3.630817 32.460761 -2.871232
2007-01-22 09:37:53 51°10.836 2°36.466 9.3408 3.686552 32.889821 -2.871232
2007-01-22 09:38:53 51°11.02 2°36.54 9.3112 3.687796 32.921177 -2.871232
2007-01-22 09:39:53 51°11.185 2°36.691 9.2979 3.687071 32.934737 -2.871232
2007-01-22 09:40:53 51°11.352 2°36.838 9.3183 3.685724 32.929141 -2.871232
2007-01-22 09:41:53 51°11.522 2°36.98 9.3487 3.689557 32.930887 -2.871232
2007-01-22 09:42:53 51°11.701 2°37.129 9.32 3.689972 32.930679 -2.871232
2007-01-22 09:43:53 51°11.881 2°37.274 9.3308 3.688107 32.928589 -2.871232
2007-01-22 09:44:53 51°12.062 2°37.418 9.343 3.692147 32.954016 -2.871232
2007-01-22 09:45:53 51°12.242 2°37.563 9.3483 3.695463 32.979152 -2.871232
2007-01-22 09:46:53 51°12.423 2°37.705 9.3586 3.698571 33.006555 -2.871232
2007-01-22 09:47:53 51°12.605 2°37.848 9.3704 3.70199 33.028374 -2.871232
2007-01-22 09:48:53 51°12.785 2°37.99 9.3774 3.704166 33.038707 -2.871232
2007-01-22 09:49:53 51°12.965 2°38.132 9.3638 3.705202 33.047258 -2.871232
2007-01-22 09:50:53 51°13.145 2°38.278 9.343 3.701472 33.027564 -2.871232
2007-01-22 09:51:53 51°13.318 2°38.441 9.3372 3.696913 32.999622 -2.871232
2007-01-22 09:52:53 51°13.48 2°38.633 9.3259 3.694531 32.986347 -2.871232
2007-01-22 09:53:53 51°13.641 2°38.826 9.3253 3.694323 32.987754 -2.871232
2007-01-22 09:54:53 51°13.806 2°39.011 9.3189 3.694116 32.991762 -2.871232
2007-01-22 09:55:53 51°14.004 2°39.025 9.3143 3.694116 32.999566 -2.871232
2007-01-22 09:56:53 51°14.186 2°38.859 9.3332 3.696085 33.012194 -2.871232
2007-01-22 09:57:53 51°14.325 2°38.583 9.3706 3.623046 32.263676 -2.871232
2007-01-22 09:58:53 51°14.476 2°38.327 9.4696 3.596009 31.948372 -2.871232
2007-01-22 09:59:53 51°14.641 2°38.098 9.5182 3.551882 31.425851 -2.871232
2007-01-22 10:00:53 51°14.806 2°37.873 9.5509 3.622319 32.087236 -2.871232
2007-01-22 10:01:53 51°14.973 2°37.654 9.5934 3.659924 32.42568 -2.871232
2007-01-22 10:02:53 51°15.145 2°37.435 9.6323 3.617656 31.967912 -2.871232
2007-01-22 10:03:53 51°15.326 2°37.222 9.6601 3.599217 31.75876 -2.871232
2007-01-22 10:04:53 51°15.511 2°37.021 9.6909 3.639824 32.124703 -2.871232
2007-01-22 10:05:53 51°15.698 2°36.837 9.6942 3.674323 32.44662 -2.871232
2007-01-22 10:06:53 51°15.894 2°36.68 9.6969 3.697427 32.671974 -2.871232
2007-01-22 10:07:53 51°16.079 2°36.495 9.7195 3.617966 31.881317 -2.871232
2007-01-22 10:08:53 51°16.259 2°36.335 9.7848 3.617344 31.850423 -2.871232
2007-01-22 10:09:53 51°16.34 2°36.493 9.7722 3.700948 32.616794 -2.871232
2007-01-22 10:10:53 51°16.427 2°36.604 9.7836 3.677844 32.40378 -2.871232
2007-01-22 10:11:53 51°16.475 2°36.664 9.7731 3.674011 32.362023 -2.871232
2007-01-22 10:12:54 51°16.501 2°36.692 9.7728 3.676705 32.392612 -2.871232
2007-01-22 10:13:53 51°16.516 2°36.716 9.7734 3.689966 32.521764 -2.871232
2007-01-22 10:14:53 51°16.541 2°36.739 9.7655 3.607191 31.713256 -2.871232
2007-01-22 10:15:53 51°16.581 2°36.784 9.7525 3.681471 32.450252 -2.871232
2007-01-22 10:16:53 51°16.607 2°36.793 9.7486 3.668209 32.329481 -2.871232
2007-01-22 10:17:53 51°16.617 2°36.771 9.7569 3.676912 32.413121 -2.871232
2007-01-22 10:18:53 51°16.619 2°36.741 9.7598 3.649872 32.14314 -2.871232
2007-01-22 10:19:53 51°16.618 2°36.71 9.7635 3.651426 32.15419 -2.871232
2007-01-22 10:20:53 51°16.612 2°36.677 9.761 3.619001 31.838565 -2.871232
2007-01-22 10:21:53 51°16.605 2°36.642 9.7594 3.633089 31.979688 -2.871232
2007-01-22 10:22:53 51°16.595 2°36.605 9.7548 3.590204 31.559599 -2.871232
2007-01-22 10:23:53 51°16.589 2°36.562 9.7587 3.60512 31.706979 -2.871232
2007-01-22 10:24:53 51°16.619 2°36.454 9.7636 3.63713 32.020056 -2.871232
2007-01-22 10:25:53 51°16.732 2°36.332 9.7577 3.651012 32.155133 -2.871232
2007-01-22 10:26:53 51°16.903 2°36.123 9.7667 3.560683 31.272266 -2.871232
2007-01-22 10:27:53 51°17.082 2°35.916 9.7872 3.63858 32.022631 -2.871232
2007-01-22 10:28:53 51°17.262 2°35.717 9.8122 3.585853 31.481217 -2.871232
2007-01-22 10:29:53 51°17.438 2°35.508 9.833 3.577255 31.378696 -2.871232
2007-01-22 10:30:53 51°17.614 2°35.283 9.8337 3.502269 30.637306 -2.871232
2007-01-22 10:31:53 51°17.782 2°35.028 9.8343 3.62449 31.825454 -2.871232
2007-01-22 10:32:53 51°17.924 2°34.733 9.8392 3.160537 27.345077 -2.871232
2007-01-22 10:33:53 51°18.039 2°34.397 9.8496 3.62563 31.829991 -2.871232
2007-01-22 10:34:53 51°18.156 2°34.066 9.8779 3.604186 31.605313 -2.871232
2007-01-22 10:35:53 51°18.273 2°33.738 9.8708 3.635781 31.896921 -2.871232
2007-01-22 10:36:53 51°18.392 2°33.411 9.8733 3.656605 32.109218 -2.871232
2007-01-22 10:37:53 51°18.513 2°33.09 9.8891 3.479278 30.37339 -2.871232
2007-01-22 10:38:53 51°18.631 2°32.769 9.8946 3.669451 32.210556 -2.871232
2007-01-22 10:39:53 51°18.746 2°32.442 9.9035 3.686753 32.373676 -2.871232
2007-01-22 10:40:53 51°18.86 2°32.115 9.9112 3.621382 31.727853 -2.871232
2007-01-22 10:41:53 51°18.973 2°31.789 9.9156 3.800424 33.472019 -2.871232
2007-01-22 10:42:53 51°19.085 2°31.463 9.9107 3.798144 33.448787 -2.871232
2007-01-22 10:43:53 51°19.198 2°31.135 9.8989 3.794413 33.421682 -2.871232
2007-01-22 10:44:53 51°19.309 2°30.804 9.9009 3.791926 33.405045 -2.871232
2007-01-22 10:45:53 51°19.411 2°30.461 9.9035 3.793273 33.41395 -2.871232
2007-01-22 10:46:53 51°19.529 2°30.137 9.915 3.795139 33.427936 -2.871232
2007-01-22 10:47:53 51°19.659 2°29.966 9.9027 3.796693 33.438871 -2.871232
2007-01-22 10:48:53 51°19.73 2°29.772 9.9105 3.797211 33.435322 -2.871232
2007-01-22 10:49:53 51°19.785 2°29.715 9.9059 3.7969 33.440041 -2.871232
2007-01-22 10:50:53 51°19.817 2°29.72 9.9088 3.796693 33.440598 -2.871232
2007-01-22 10:51:53 51°19.843 2°29.768 9.903 3.79659 33.441308 -2.871232
2007-01-22 10:52:53 51°19.893 2°29.845 9.9022 3.796589 33.438718 -2.871232
2007-01-22 10:53:53 51°19.952 2°29.925 9.9068 3.796486 33.439428 -2.871232
2007-01-22 10:54:53 51°19.998 2°29.986 9.9026 3.795968 33.437798 -2.871232
2007-01-22 10:55:53 51°20.02 2°30.004 9.8966 3.79576 33.434037 -2.871232
2007-01-22 10:56:53 51°20.021 2°30.001 9.8951 3.795139 33.434844 -2.871232
2007-01-22 10:57:53 51°20.015 2°29.988 9.9053 3.795139 33.435707 -2.871232
2007-01-22 10:58:54 51°20.007 2°29.965 9.9001 3.795035 33.432963 -2.871232
2007-01-22 10:59:54 51°19.996 2°29.941 9.9006 3.795035 33.433827 -2.871232
2007-01-22 11:00:53 51°19.985 2°29.924 9.8997 3.795346 33.433423 -2.871232
2007-01-22 11:01:54 51°19.972 2°29.902 9.8966 3.795346 33.434287 -2.871232
2007-01-22 11:02:54 51°19.958 2°29.879 9.8988 3.795139 33.433117 -2.871232
2007-01-22 11:03:54 51°19.955 2°29.907 9.8999 3.795035 33.433827 -2.871232
2007-01-22 11:04:54 51°20.013 2°29.907 9.8951 3.794621 33.432349 -2.871232
2007-01-22 11:05:54 51°20.182 2°29.964 9.8959 3.794932 33.431946 -2.871232
2007-01-22 11:06:54 51°20.384 2°30.046 9.9015 3.795657 33.439065 -2.871232
2007-01-22 11:07:54 51°20.586 2°30.133 9.9241 3.797108 33.450711 -2.871232
2007-01-22 11:08:54 51°20.786 2°30.216 9.9578 3.801874 33.460338 -2.871232
2007-01-22 11:09:54 51°20.981 2°30.3 9.9584 3.80405 33.460098 -2.871232
2007-01-22 11:10:54 51°21.175 2°30.384 9.9539 3.803014 33.454255 -2.871232
2007-01-22 11:11:54 51°21.366 2°30.461 9.9597 3.803014 33.45253 -2.871232
2007-01-22 11:12:53 51°21.553 2°30.536 9.9617 3.8026 33.449331 -2.871232
2007-01-22 11:13:54 51°21.744 2°30.631 9.9753 3.803532 33.453296 -2.871232
2007-01-22 11:14:54 51°21.931 2°30.731 9.978 3.804983 33.458887 -2.871232
2007-01-22 11:15:54 51°22.118 2°30.831 9.9875 3.806123 33.456259 -2.871232
2007-01-22 11:16:54 51°22.305 2°30.933 9.9757 3.803946 33.437533 -2.871232
2007-01-22 11:17:54 51°22.493 2°31.035 9.9704 3.801045 33.419451 -2.871232
2007-01-22 11:18:54 51°22.678 2°31.146 9.9889 3.800527 33.415238 -2.871232
2007-01-22 11:19:54 51°22.862 2°31.261 10.0038 3.803843 33.427907 -2.871232
2007-01-22 11:20:54 51°23.033 2°31.401 10.0318 3.807988 33.444374 -2.871232
2007-01-22 11:21:53 51°23.18 2°31.593 10.0398 3.811926 33.463101 -2.871232
2007-01-22 11:22:54 51°23.317 2°31.821 10.0482 3.812029 33.465836 -2.871232
2007-01-22 11:23:54 51°23.413 2°32.089 10.0605 3.813584 33.468129 -2.871232
2007-01-22 11:24:54 51°23.457 2°32.398 10.0664 3.816278 33.480702 -2.871232
2007-01-22 11:25:54 51°23.481 2°32.716 10.0627 3.815864 33.478371 -2.871232
2007-01-22 11:26:54 51°23.499 2°33.039 10.0479 3.814413 33.469351 -2.871232
2007-01-22 11:27:54 51°23.511 2°33.363 10.0161 3.809749 33.44784 -2.871232
2007-01-22 11:28:54 51°23.524 2°33.687 9.9986 3.805708 33.434114 -2.871232
2007-01-22 11:29:54 51°23.537 2°34.01 9.9934 3.804568 33.433286 -2.871232
2007-01-22 11:30:53 51°23.549 2°34.327 9.9622 3.804361 33.437285 -2.871232
2007-01-22 11:31:54 51°23.563 2°34.656 9.9191 3.799491 33.431796 -2.871232
2007-01-22 11:32:54 51°23.572 2°34.981 9.8945 3.795864 33.427285 -2.871232
2007-01-22 11:33:54 51°23.578 2°35.305 9.8934 3.792444 33.412719 -2.871232
2007-01-22 11:34:53 51°23.585 2°35.626 9.8904 3.791512 33.403566 -2.871232
2007-01-22 11:35:54 51°23.594 2°35.957 9.8966 3.790786 33.396447 -2.871232
2007-01-22 11:36:54 51°23.603 2°36.286 9.8927 3.790372 33.391517 -2.871232
2007-01-22 11:37:54 51°23.609 2°36.615 9.8933 3.789646 33.381812 -2.871232
2007-01-22 11:38:54 51°23.621 2°36.947 9.8926 3.787367 33.366339 -2.871232
2007-01-22 11:39:54 51°23.631 2°37.282 9.8926 3.785916 33.352104 -2.871232
2007-01-22 11:40:54 51°23.641 2°37.615 9.8825 3.784569 33.34147 -2.871232
2007-01-22 11:41:54 51°23.653 2°37.95 9.8817 3.78374 33.335919 -2.871232
2007-01-22 11:42:54 51°23.664 2°38.289 9.8777 3.783947 33.340537 -2.871232
2007-01-22 11:43:54 51°23.681 2°38.627 9.8674 3.783532 33.340777 -2.871232
2007-01-22 11:44:54 51°23.713 2°38.959 9.858 3.782289 33.335464 -2.871232
2007-01-22 11:45:54 51°23.764 2°39.282 9.8515 3.780838 33.333287 -2.871232
2007-01-22 11:46:54 51°23.829 2°39.597 9.8476 3.78032 33.331647 -2.871232
2007-01-22 11:47:54 51°23.897 2°39.912 9.843 3.779802 33.331731 -2.871232
2007-01-22 11:48:54 51°23.966 2°40.23 9.8462 3.779698 33.332438 -2.871232
2007-01-22 11:49:54 51°24.036 2°40.548 9.8412 3.780735 33.340891 -2.871232
2007-01-22 11:50:54 51°24.115 2°40.86 9.8325 3.779491 33.334713 -2.871232
2007-01-22 11:51:54 51°24.193 2°41.172 9.8264 3.779284 33.338715 -2.871232
2007-01-22 11:52:54 51°24.273 2°41.483 9.8253 3.778559 33.335901 -2.871232
2007-01-22 11:53:54 51°24.349 2°41.796 9.8214 3.777626 33.332776 -2.871232
2007-01-22 11:54:54 51°24.426 2°42.108 9.8239 3.778248 33.338023 -2.871232
2007-01-22 11:55:54 51°24.503 2°42.421 9.8202 3.778352 33.339905 -2.871232
2007-01-22 11:56:53 51°24.579 2°42.728 9.8196 3.778248 33.340612 -2.871232
2007-01-22 11:57:53 51°24.657 2°43.037 9.8229 3.778663 33.344686 -2.871232
2007-01-22 11:58:52 51°24.734 2°43.344 9.8163 3.778455 33.344375 -2.871232
2007-01-22 11:59:53 51°24.812 2°43.659 9.8145 3.778144 33.343046 -2.871232
2007-01-22 12:00:53 51°24.889 2°43.967 9.8123 3.77773 33.340698 -2.871232
2007-01-22 12:01:52 51°24.963 2°44.27 9.8103 3.777937 33.347052 -2.871232
2007-01-22 12:02:53 51°25.04 2°44.583 9.8098 3.778352 33.350264 -2.871232
2007-01-22 12:03:54 51°25.117 2°44.893 9.8047 3.77887 33.354494 -2.871232
2007-01-22 12:04:53 51°25.192 2°45.195 9.8069 3.778766 33.360385 -2.871232
2007-01-22 12:05:54 51°25.268 2°45.508 9.7993 3.779077 33.368627 -2.871232
2007-01-22 12:06:53 51°25.342 2°45.81 9.8008 3.779595 33.373722 -2.871232
2007-01-22 12:07:53 51°25.419 2°46.117 9.7979 3.780321 33.379992 -2.871232
2007-01-22 12:08:53 51°25.488 2°46.431 9.7956 3.78001 33.382122 -2.871232
2007-01-22 12:09:53 51°25.549 2°46.751 9.7899 3.779388 33.378601 -2.871232
2007-01-22 12:10:53 51°25.612 2°47.069 9.7775 3.778145 33.374151 -2.871232
2007-01-22 12:11:52 51°25.672 2°47.38 9.7649 3.776383 33.368926 -2.871232
2007-01-22 12:12:53 51°25.734 2°47.7 9.748 3.774 33.360174 -2.871232
2007-01-22 12:13:52 51°25.791 2°48.001 9.7413 3.772135 33.350462 -2.871232
2007-01-22 12:14:53 51°25.83 2°48.239 9.7325 3.770166 33.343187 -2.871232
2007-01-22 12:15:53 51°25.864 2°48.357 9.7283 3.768923 33.337861 -2.871232
2007-01-22 12:16:53 51°25.886 2°48.411 9.7294 3.768508 33.333778 -2.871232
2007-01-22 12:17:53 51°25.923 2°48.428 9.7364 3.768508 33.333778 -2.871232
2007-01-22 12:18:53 51°25.96 2°48.465 9.7271 3.769026 33.336286 -2.871232
2007-01-22 12:19:54 51°25.99 2°48.478 9.735 3.769752 33.337374 -2.871232
2007-01-22 12:20:53 51°25.999 2°48.513 9.7387 3.770477 33.348845 -2.871232
2007-01-22 12:21:53 51°25.988 2°48.514 9.7384 3.771099 33.349776 -2.871232
2007-01-22 12:22:53 51°25.963 2°48.494 9.7348 3.77141 33.350241 -2.871232
2007-01-22 12:23:53 51°25.938 2°48.456 9.7377 3.771202 33.3482 -2.871232
2007-01-22 12:24:53 51°25.918 2°48.418 9.7329 3.770684 33.349155 -2.871232
2007-01-22 12:25:53 51°25.898 2°48.383 9.7354 3.769959 33.343742 -2.871232
2007-01-22 12:26:54 51°25.877 2°48.347 9.7298 3.770166 33.346648 -2.871232
2007-01-22 12:27:52 51°25.854 2°48.317 9.7393 3.769959 33.347204 -2.871232
2007-01-22 12:28:54 51°25.813 2°48.35 9.7346 3.770166 33.344052 -2.871232
2007-01-22 12:29:53 51°25.847 2°48.461 9.73 3.769752 33.346893 -2.871232
2007-01-22 12:30:53 51°25.924 2°48.743 9.7281 3.769855 33.341856 -2.871232
2007-01-22 12:31:53 51°25.98 2°49.067 9.7392 3.770477 33.349711 -2.871232
2007-01-22 12:32:53 51°26.036 2°49.395 9.7307 3.769855 33.343586 -2.871232
2007-01-22 12:33:54 51°26.096 2°49.728 9.7244 3.768716 33.33755 -2.871232
2007-01-22 12:34:52 51°26.15 2°50.045 9.7193 3.767368 33.328606 -2.871232
2007-01-22 12:35:53 51°26.208 2°50.378 9.7159 3.766332 33.323589 -2.871232
2007-01-22 12:36:52 51°26.265 2°50.7 9.717 3.76685 33.326963 -2.871232
2007-01-22 12:37:54 51°26.327 2°51.039 9.7232 3.767887 33.333711 -2.871232
2007-01-22 12:38:54 51°26.387 2°51.371 9.7305 3.769545 33.347448 -2.871232
2007-01-22 12:39:53 51°26.447 2°51.694 9.7323 3.772342 33.368951 -2.871232
2007-01-22 12:40:53 51°26.507 2°52.025 9.7306 3.774104 33.384573 -2.871232
2007-01-22 12:41:53 51°26.568 2°52.356 9.7392 3.775866 33.398461 -2.871232
2007-01-22 12:42:53 51°26.628 2°52.687 9.7432 3.777109 33.40811 -2.871232
2007-01-22 12:43:53 51°26.689 2°53.017 9.7396 3.778145 33.420053 -2.871232
2007-01-22 12:44:53 51°26.748 2°53.346 9.7472 3.779182 33.43113 -2.871232
2007-01-22 12:45:52 51°26.806 2°53.667 9.7396 3.780736 33.44471 -2.871232
2007-01-22 12:46:53 51°26.867 2°54.002 9.7296 3.781772 33.457525 -2.871232
2007-01-22 12:47:53 51°26.931 2°54.324 9.7181 3.780944 33.460646 -2.871232
2007-01-22 12:48:54 51°26.997 2°54.649 9.711 3.779182 33.451098 -2.871232
2007-01-22 12:49:54 51°27.061 2°54.972 9.7066 3.77742 33.440678 -2.871232
2007-01-22 12:50:54 51°27.124 2°55.297 9.7048 3.775037 33.422388 -2.871232
2007-01-22 12:51:54 51°27.186 2°55.623 9.6913 3.772654 33.404962 -2.871232
2007-01-22 12:52:52 51°27.249 2°55.938 9.6948 3.770788 33.388304 -2.871232
2007-01-22 12:53:53 51°27.315 2°56.267 9.6856 3.76913 33.372822 -2.871232
2007-01-22 12:54:53 51°27.379 2°56.59 9.6811 3.767162 33.360344 -2.871232
2007-01-22 12:55:53 51°27.443 2°56.914 9.6782 3.764675 33.342752 -2.871232
2007-01-22 12:56:54 51°27.507 2°57.246 9.6659 3.76281 33.329554 -2.871232
2007-01-22 12:57:54 51°27.569 2°57.572 9.6573 3.760323 33.313687 -2.871232
2007-01-22 12:58:53 51°27.594 2°57.903 9.6431 3.758354 33.303792 -2.871232
2007-01-22 12:59:53 51°27.619 2°58.242 9.6343 3.755971 33.293268 -2.871232
2007-01-22 13:00:54 51°27.655 2°58.588 9.63 3.755142 33.289418 -2.871232
2007-01-22 13:01:53 51°27.688 2°58.926 9.6261 3.754727 33.290525 -2.871232
2007-01-22 13:02:54 51°27.721 2°59.272 9.6162 3.755142 33.30242 -2.871232
2007-01-22 13:03:54 51°27.752 2°59.611 9.597 3.755142 33.306756 -2.871232
2007-01-22 13:04:53 51°27.786 2°59.945 9.5526 3.752759 33.318796 -2.871232
2007-01-22 13:05:54 51°27.823 3°0.29 9.5166 3.748511 33.315017 -2.871232
2007-01-22 13:06:54 51°27.86 3°0.631 9.5028 3.744678 33.30664 -2.871232
2007-01-22 13:07:53 51°27.899 3°0.962 9.4904 3.742295 33.296089 -2.871232
2007-01-22 13:08:53 51°27.949 3°1.299 9.4784 3.740222 33.286001 -2.871232
2007-01-22 13:09:53 51°28.004 3°1.638 9.4761 3.738461 33.274638 -2.871232
2007-01-22 13:10:52 51°28.057 3°1.973 9.4737 3.737321 33.268564 -2.871232
2007-01-22 13:11:53 51°28.112 3°2.32 9.4724 3.736389 33.261062 -2.871232
2007-01-22 13:12:54 51°28.164 3°2.661 9.4759 3.73556 33.254586 -2.871232
2007-01-22 13:13:54 51°28.199 3°2.918 9.4606 3.734731 33.24898 -2.871232
2007-01-22 13:14:54 51°28.211 3°3.065 9.4558 3.734109 33.249777 -2.871232
2007-01-22 13:15:54 51°28.213 3°3.148 9.4598 3.733798 33.248435 -2.871232
2007-01-22 13:16:53 51°28.232 3°3.204 9.4666 3.734005 33.24701 -2.871232
2007-01-22 13:17:53 51°28.257 3°3.351 9.4592 3.73442 33.251118 -2.871232
2007-01-22 13:18:53 51°28.266 3°3.507 9.4563 3.734213 33.248194 -2.871232
2007-01-22 13:19:53 51°28.249 3°3.53 9.4615 3.733591 33.246381 -2.871232
2007-01-22 13:20:53 51°28.229 3°3.529 9.4508 3.733073 33.246464 -2.871232
2007-01-22 13:21:53 51°28.209 3°3.526 9.4598 3.732866 33.24615 -2.871232
2007-01-22 13:22:53 51°28.189 3°3.527 9.4623 3.73328 33.245039 -2.871232
2007-01-22 13:23:54 51°28.17 3°3.527 9.4594 3.733487 33.244484 -2.871232
2007-01-22 13:24:53 51°28.152 3°3.529 9.4694 3.733591 33.246381 -2.871232
2007-01-22 13:25:53 51°28.113 3°3.561 9.4546 3.733591 33.245511 -2.871232
2007-01-22 13:26:52 51°28.055 3°3.687 9.4506 3.732141 33.244179 -2.871232
2007-01-22 13:27:52 51°28.008 3°3.795 9.455 3.731726 33.239199 -2.871232
2007-01-22 13:28:53 51°27.906 3°3.906 9.4474 3.730276 33.233514 -2.871232
2007-01-22 13:29:53 51°27.799 3°4.025 9.4439 3.728514 33.216045 -2.871232
2007-01-22 13:30:54 51°27.688 3°4.153 9.4358 3.726131 33.195888 -2.871232
2007-01-22 13:31:53 51°27.58 3°4.289 9.4354 3.723437 33.176123 -2.871232
2007-01-22 13:32:54 51°27.468 3°4.43 9.4289 3.721779 33.162286 -2.871232
2007-01-22 13:33:53 51°27.36 3°4.562 9.4255 3.720432 33.148927 -2.871232
2007-01-22 13:34:53 51°27.252 3°4.702 9.4177 3.719085 33.141645 -2.871232
2007-01-22 13:35:54 51°27.139 3°4.839 9.4181 3.717324 33.129381 -2.871232
2007-01-22 13:36:52 51°27.033 3°4.97 9.4083 3.71577 33.118303 -2.871232
2007-01-22 13:37:54 51°26.923 3°5.113 9.4024 3.714216 33.107223 -2.871232
2007-01-22 13:38:53 51°26.818 3°5.247 9.3962 3.711936 33.088946 -2.871232
2007-01-22 13:39:53 51°26.714 3°5.386 9.3887 3.709657 33.074134 -2.871232
2007-01-22 13:40:53 51°26.61 3°5.529 9.3804 3.706963 33.052604 -2.871232
2007-01-22 13:41:54 51°26.504 3°5.674 9.3798 3.704373 33.035564 -2.871232
2007-01-22 13:42:53 51°26.402 3°5.815 9.3763 3.701575 33.012997 -2.871232
2007-01-22 13:43:52 51°26.299 3°5.951 9.3617 3.698467 32.9934 -2.871232
2007-01-22 13:44:53 51°26.197 3°6.093 9.3638 3.697224 32.979327 -2.871232
2007-01-22 13:45:52 51°26.1 3°6.231 9.3601 3.69567 32.967361 -2.871232
2007-01-22 13:46:54 51°25.993 3°6.379 9.3537 3.693183 32.949597 -2.871232
2007-01-22 13:47:53 51°25.88 3°6.535 9.3483 3.691422 32.939028 -2.871232
2007-01-22 13:48:53 51°25.71 3°6.769 9.3466 3.689246 32.91397 -2.871232
2007-01-22 13:49:53 51°25.53 3°7.015 9.3511 3.68189 32.849582 -2.871232
2007-01-22 13:50:53 51°25.351 3°7.248 9.325 3.674638 32.780185 -2.871232
2007-01-22 13:51:53 51°25.174 3°7.493 9.3192 3.671012 32.754523 -2.871232
2007-01-22 13:52:53 51°24.993 3°7.744 9.312 3.666661 32.720791 -2.871232
2007-01-22 13:53:53 51°24.815 3°8.006 9.3146 3.661688 32.67916 -2.871232
2007-01-22 13:54:53 51°24.635 3°8.263 9.2985 3.659512 32.65928 -2.871232
2007-01-22 13:55:54 51°24.452 3°8.527 9.2838 3.659927 32.671122 -2.871232
2007-01-22 13:56:52 51°24.277 3°8.776 9.2763 3.660238 32.687957 -2.871232
2007-01-22 13:57:54 51°24.095 3°9.058 9.2527 3.660238 32.712046 -2.871232
2007-01-22 13:58:53 51°23.922 3°9.33 9.2143 3.658892 32.724498 -2.871232
2007-01-22 13:59:53 51°23.754 3°9.626 9.2035 3.651018 32.666834 -2.871232
2007-01-22 14:00:54 51°23.595 3°9.923 8.8639 3.55976 31.905924 -2.871232
2007-01-22 14:01:53 51°23.442 3°10.217 8.7462 3.445221 30.984712 -2.871232
2007-01-22 14:02:54 51°23.288 3°10.53 8.7218 3.398523 30.586073 -2.871232
2007-01-22 14:03:54 51°23.146 3°10.851 8.6942 3.389515 30.502715 -2.871232
2007-01-22 14:04:53 51°23.014 3°11.172 8.6566 3.368602 30.326546 -2.871232
2007-01-22 14:05:53 51°22.892 3°11.516 8.5981 3.355247 30.228882 -2.871232
2007-01-22 14:06:53 51°22.789 3°11.881 8.522 3.324086 29.992637 -2.871232
2007-01-22 14:07:53 51°22.691 3°12.25 8.5308 3.30566 29.847775 -2.871232
2007-01-22 14:08:53 51°22.631 3°12.644 8.5364 3.306488 29.84242 -2.871232
2007-01-22 14:09:54 51°22.582 3°12.959 8.5287 3.304418 29.81932 -2.871232
2007-01-22 14:10:53 51°22.558 3°13.137 8.5506 3.304314 29.817484 -2.871232
2007-01-22 14:11:53 51°22.545 3°13.245 8.5588 3.306488 29.822389 -2.871232
2007-01-22 14:12:54 51°22.534 3°13.309 8.5493 3.306281 29.825926 -2.871232
2007-01-22 14:13:54 51°22.524 3°13.446 8.5396 3.305763 29.827963 -2.871232
2007-01-22 14:14:53 51°22.583 3°13.507 8.5501 3.305764 29.828765 -2.871232
2007-01-22 14:15:54 51°22.572 3°13.406 8.5569 3.307523 29.836736 -2.871232
2007-01-22 14:16:54 51°22.592 3°13.335 8.5385 3.306385 29.829364 -2.871232
2007-01-22 14:17:54 51°22.611 3°13.298 8.5272 3.304004 29.815982 -2.871232
2007-01-22 14:18:54 51°22.593 3°13.254 8.5257 3.302244 29.804799 -2.871232
2007-01-22 14:19:53 51°22.594 3°13.226 8.5236 3.301623 29.800992 -2.871232
2007-01-22 14:20:54 51°22.62 3°13.216 8.5185 3.301209 29.800857 -2.871232
2007-01-22 14:21:53 51°22.633 3°13.246 8.5159 3.301623 29.804997 -2.871232
2007-01-22 14:22:53 51°22.636 3°13.291 8.5081 3.301209 29.805664 -2.871232
2007-01-22 14:23:53 51°22.627 3°13.337 8.5112 3.301313 29.805096 -2.871232
2007-01-22 14:24:53 51°22.617 3°13.387 8.5157 3.301623 29.810606 -2.871232
2007-01-22 14:25:54 51°22.623 3°13.376 8.5158 3.302141 29.815782 -2.871232
2007-01-22 14:26:53 51°22.609 3°13.203 8.5135 3.304211 29.830073 -2.871232
2007-01-22 14:27:54 51°22.595 3°12.912 8.508 3.307317 29.865947 -2.871232
2007-01-22 14:28:53 51°22.563 3°12.638 8.5443 3.310008 29.899301 -2.871232
2007-01-22 14:29:54 51°22.514 3°12.36 8.6106 3.32947 30.056947 -2.871232
2007-01-22 14:30:54 51°22.433 3°12.094 8.6458 3.355143 30.228658 -2.871232
2007-01-22 14:31:54 51°22.352 3°11.827 8.6429 3.348621 30.18132 -2.871232
2007-01-22 14:32:54 51°22.284 3°11.552 8.6714 3.363218 30.291462 -2.871232
2007-01-22 14:33:54 51°22.205 3°11.274 8.6511 3.363736 30.294198 -2.871232
2007-01-22 14:34:54 51°22.127 3°11.001 8.6111 3.348931 30.175528 -2.871232
2007-01-22 14:35:53 51°22.056 3°10.727 8.613 3.348518 30.189994 -2.871232
2007-01-22 14:36:54 51°21.987 3°10.44 8.6411 3.360527 30.314084 -2.871232
2007-01-22 14:37:54 51°21.92 3°10.158 8.6418 3.39283 30.621694 -2.871232
2007-01-22 14:38:54 51°21.818 3°9.896 8.7212 3.412191 30.782548 -2.871232
2007-01-22 14:39:53 51°21.688 3°9.677 8.7461 3.439423 30.991301 -2.871232
2007-01-22 14:40:54 51°21.563 3°9.429 8.7725 3.445014 31.029798 -2.871232
2007-01-22 14:41:54 51°21.443 3°9.174 8.792 3.453712 31.092666 -2.871232
2007-01-22 14:42:54 51°21.323 3°8.922 8.7726 3.466657 31.21618 -2.871232
2007-01-22 14:43:54 51°21.205 3°8.67 8.7808 3.465207 31.213349 -2.871232
2007-01-22 14:44:53 51°21.087 3°8.424 8.8143 3.470902 31.255279 -2.871232
2007-01-22 14:45:53 51°20.972 3°8.165 8.8369 3.483122 31.343161 -2.871232
2007-01-22 14:46:54 51°20.852 3°7.913 8.8734 3.492546 31.422242 -2.871232
2007-01-22 14:47:53 51°20.74 3°7.66 8.8613 3.496377 31.442095 -2.871232
2007-01-22 14:48:54 51°20.617 3°7.4 8.8953 3.497206 31.447856 -2.871232
2007-01-22 14:49:54 51°20.496 3°7.14 8.8932 3.501659 31.473889 -2.871232
2007-01-22 14:50:54 51°20.372 3°6.887 8.9202 3.510461 31.548327 -2.871232
2007-01-22 14:51:53 51°20.259 3°6.625 8.9347 3.521129 31.639657 -2.871232
2007-01-22 14:52:54 51°20.141 3°6.352 8.9442 3.532003 31.735548 -2.871232
2007-01-22 14:53:53 51°20.025 3°6.091 8.9614 3.544535 31.841191 -2.871232
2007-01-22 14:54:54 51°19.904 3°5.814 8.9691 3.553442 31.918229 -2.871232
2007-01-22 14:55:53 51°19.788 3°5.548 8.991 3.566907 32.044129 -2.871232
2007-01-22 14:56:53 51°19.683 3°5.268 8.9933 3.582651 32.191093 -2.871232
2007-01-22 14:57:54 51°19.571 3°4.984 9.0095 3.59332 32.276252 -2.871232
2007-01-22 14:58:53 51°19.464 3°4.709 9.0306 3.606476 32.398182 -2.871232
2007-01-22 14:59:54 51°19.354 3°4.435 9.0521 3.619838 32.514435 -2.871232
2007-01-22 15:00:54 51°19.251 3°4.159 9.071 3.624293 32.537378 -2.871232
2007-01-22 15:01:53 51°19.147 3°3.889 9.0682 3.622531 32.507752 -2.871232
2007-01-22 15:02:53 51°19.041 3°3.618 9.0654 3.624085 32.519814 -2.871232
2007-01-22 15:03:53 51°18.932 3°3.342 9.064 3.628229 32.570641 -2.871232
2007-01-22 15:04:54 51°18.828 3°3.056 9.0774 3.632994 32.612171 -2.871232
2007-01-22 15:05:54 51°18.718 3°2.786 9.0977 3.638485 32.659207 -2.871232
2007-01-22 15:06:53 51°18.619 3°2.505 9.1175 3.646151 32.709782 -2.871232
2007-01-22 15:07:54 51°18.515 3°2.215 9.1293 3.653195 32.761027 -2.871232
2007-01-22 15:08:54 51°18.398 3°1.949 9.1261 3.652781 32.750837 -2.871232
2007-01-22 15:09:53 51°18.294 3°1.681 9.1302 3.652263 32.749131 -2.871232
2007-01-22 15:10:53 51°18.186 3°1.412 9.1462 3.653299 32.755137 -2.871232
2007-01-22 15:11:53 51°18.082 3°1.132 9.1578 3.654334 32.760277 -2.871232
2007-01-22 15:12:53 51°17.97 3°0.869 9.1415 3.656303 32.774712 -2.871232
2007-01-22 15:13:54 51°17.857 3°0.588 9.1518 3.657028 32.780211 -2.871232
2007-01-22 15:14:53 51°17.754 3°0.313 9.1561 3.657442 32.780881 -2.871232
2007-01-22 15:15:53 51°17.644 3°0.038 9.1563 3.658478 32.781689 -2.871232
2007-01-22 15:16:53 51°17.533 2°59.768 9.1595 3.658167 32.785514 -2.871232
2007-01-22 15:17:54 51°17.43 2°59.489 9.1633 3.658478 32.784285 -2.871232
2007-01-22 15:18:53 51°17.33 2°59.21 9.1493 3.657753 32.783979 -2.871232
2007-01-22 15:19:53 51°17.253 2°58.909 9.1479 3.657339 32.774656 -2.871232
2007-01-22 15:20:53 51°17.18 2°58.606 9.1603 3.655267 32.765248 -2.871232
2007-01-22 15:21:54 51°17.117 2°58.289 9.1166 3.647497 32.713707 -2.871232
2007-01-22 15:22:54 51°17.045 2°57.987 9.1313 3.646254 32.696122 -2.871232
2007-01-22 15:23:54 51°16.976 2°57.68 9.1676 3.656924 32.776582 -2.871232
2007-01-22 15:24:54 51°16.912 2°57.369 9.1852 3.660446 32.787463 -2.871232
2007-01-22 15:25:53 51°16.849 2°57.059 9.1984 3.659617 32.769695 -2.871232
2007-01-22 15:26:54 51°16.786 2°56.739 9.2184 3.659099 32.741221 -2.871232
2007-01-22 15:27:54 51°16.719 2°56.432 9.243 3.65682 32.708194 -2.871232
2007-01-22 15:28:54 51°16.656 2°56.118 9.236 3.65423 32.671239 -2.871232
2007-01-22 15:29:54 51°16.587 2°55.813 9.2381 3.652365 32.637225 -2.871232
2007-01-22 15:30:54 51°16.522 2°55.507 9.2422 3.649153 32.614752 -2.871232
2007-01-22 15:31:54 51°16.462 2°55.193 9.245 3.648739 32.597759 -2.871232
2007-01-22 15:32:54 51°16.41 2°54.932 9.2499 3.647185 32.590039 -2.871232
2007-01-22 15:33:54 51°16.382 2°54.783 9.2469 3.647806 32.591926 -2.871232
2007-01-22 15:34:53 51°16.363 2°54.673 9.2588 3.647392 32.590382 -2.871232
2007-01-22 15:35:53 51°16.338 2°54.577 9.2522 3.648014 32.593985 -2.871232
2007-01-22 15:36:53 51°16.308 2°54.445 9.2407 3.647496 32.589696 -2.871232
2007-01-22 15:37:54 51°16.272 2°54.324 9.2449 3.646874 32.584377 -2.871232
2007-01-22 15:38:54 51°16.237 2°54.285 9.2578 3.646874 32.587808 -2.871232
2007-01-22 15:39:53 51°16.219 2°54.276 9.253 3.64677 32.581632 -2.871232
2007-01-22 15:40:54 51°16.207 2°54.281 9.2418 3.645527 32.574425 -2.871232
2007-01-22 15:41:53 51°16.202 2°54.294 9.2477 3.644181 32.567043 -2.871232
2007-01-22 15:42:54 51°16.194 2°54.315 9.2625 3.643663 32.560181 -2.871232
2007-01-22 15:43:54 51°16.151 2°54.366 9.2367 3.643352 32.552807 -2.871232
2007-01-22 15:44:53 51°16.127 2°54.398 9.2298 3.640969 32.540269 -2.871232
2007-01-22 15:45:54 51°16.061 2°54.431 9.2154 3.638794 32.529785 -2.871232
2007-01-22 15:46:54 51°15.908 2°54.496 9.2052 3.636515 32.519122 -2.871232
2007-01-22 15:47:54 51°15.698 2°54.557 9.1808 3.633822 32.508618 -2.871232
2007-01-22 15:48:53 51°15.49 2°54.594 9.1218 3.629264 32.490693 -2.871232
2007-01-22 15:49:54 51°15.272 2°54.633 9.1008 3.615072 32.39991 -2.871232
2007-01-22 15:50:54 51°15.063 2°54.671 9.141 3.610825 32.359306 -2.871232
2007-01-22 15:51:54 51°14.857 2°54.717 9.1638 3.62512 32.456301 -2.871232
2007-01-22 15:52:54 51°14.652 2°54.801 9.134 3.623877 32.453349 -2.871232
2007-01-22 15:53:54 51°14.45 2°54.931 9.1083 3.610825 32.349045 -2.871232
2007-01-22 15:54:54 51°14.31 2°55.181 8.9018 3.46158 30.967254 -2.871232
2007-01-22 15:55:54 51°14.164 2°55.382 8.926 3.271186 29.174821 -2.871232
2007-01-22 15:56:54 51°14.01 2°55.497 8.851 3.180934 28.273511 -2.871232
2007-01-22 15:57:54 51°13.882 2°55.592 8.8352 3.023659 26.767943 -2.871232
2007-01-22 15:58:54 51°13.772 2°55.692 8.728 2.872436 25.33851 -2.871232
2007-01-22 15:59:53 51°13.69 2°55.831 8.6622 2.48726 21.739033 -2.871232
2007-01-22 16:00:54 51°13.637 2°55.95 8.7531 2.54513 22.26791 -2.871232
2007-01-22 16:01:54 51°13.607 2°56.041 8.7193 2.731705 24.007156 -2.871232
2007-01-22 16:02:54 51°13.599 2°56.087 8.7286 2.585643 22.642888 -2.871232
2007-01-22 16:03:54 51°13.597 2°56.093 8.8175 2.796533 24.623053 -2.871232